TimeEDT,TemperatureF,Dew PointF,Humidity,Sea Level PressureIn,VisibilityMPH,Wind Direction,Wind SpeedMPH,Gust SpeedMPH,PrecipitationIn,Events,Conditions,WindDirDegrees,DateUTC
12:15 AM,49.8,49.8,100,30.19,10.0,Calm,Calm,-,N/A,,Clear,0,2013-07-30 04:15:00
12:35 AM,48.4,48.4,100,30.20,0.5,Calm,Calm,-,N/A,Fog,Fog,0,2013-07-30 04:35:00
12:55 AM,48.4,48.4,100,30.20,0.5,Calm,Calm,-,N/A,Fog,Fog,0,2013-07-30 04:55:00
1:15 AM,48.4,48.4,100,30.21,0.5,Calm,Calm,-,N/A,Fog,Fog,0,2013-07-30 05:15:00
1:35 AM,48.4,48.4,100,30.21,10.0,Calm,Calm,-,N/A,,Clear,0,2013-07-30 05:35:00
1:55 AM,45.9,45.9,100,30.20,10.0,Calm,Calm,-,N/A,,Clear,0,2013-07-30 05:55:00
2:15 AM,46.0,46.0,100,30.20,10.0,Calm,Calm,-,N/A,,Clear,0,2013-07-30 06:15:00
2:35 AM,45.9,45.9,100,30.20,10.0,Calm,Calm,-,N/A,,Clear,0,2013-07-30 06:35:00
2:55 AM,43.2,43.2,100,30.20,10.0,Calm,Calm,-,N/A,,Clear,0,2013-07-30 06:55:00
3:15 AM,44.4,44.4,100,30.20,10.0,Calm,Calm,-,N/A,,Clear,0,2013-07-30 07:15:00
3:35 AM,41.0,41.0,100,30.20,0.5,Calm,Calm,-,N/A,Fog,Fog,0,2013-07-30 07:35:00
3:55 AM,41.5,41.5,100,30.20,0.8,Calm,Calm,-,N/A,,Mist,0,2013-07-30 07:55:00
4:15 AM,42.3,42.3,100,30.19,1.0,Calm,Calm,-,N/A,,Mist,0,2013-07-30 08:15:00
4:35 AM,42.1,42.1,100,30.20,0.2,Calm,Calm,-,N/A,Fog,Fog,0,2013-07-30 08:35:00
4:55 AM,44.6,44.6,100,30.21,0.2,Calm,Calm,-,N/A,Fog,Fog,0,2013-07-30 08:55:00
5:15 AM,45.9,45.9,100,30.21,0.5,Calm,Calm,-,N/A,Fog,Fog,0,2013-07-30 09:15:00
5:35 AM,45.9,45.9,100,30.21,0.5,Calm,Calm,-,N/A,Fog,Fog,0,2013-07-30 09:35:00
5:55 AM,45.9,45.9,100,30.22,0.5,Calm,Calm,-,N/A,Fog,Fog,0,2013-07-30 09:55:00
6:15 AM,45.0,45.0,100,30.22,0.5,Calm,Calm,-,N/A,Fog,Fog,0,2013-07-30 10:15:00
6:35 AM,45.7,45.7,100,30.23,0.2,Calm,Calm,-,N/A,Fog,Fog,0,2013-07-30 10:35:00
6:55 AM,44.4,44.4,100,30.23,0.2,Calm,Calm,-,N/A,Fog,Fog,0,2013-07-30 10:55:00
7:15 AM,44.6,44.6,100,30.23,0.2,Calm,Calm,-,N/A,Fog,Fog,0,2013-07-30 11:15:00
7:35 AM,48.4,48.4,100,30.23,0.2,Calm,Calm,-,N/A,Fog,Fog,0,2013-07-30 11:35:00
7:55 AM,49.3,49.3,100,30.23,1.0,Calm,Calm,-,N/A,,Overcast,0,2013-07-30 11:55:00
8:15 AM,53.6,53.6,100,30.24,10.0,Calm,Calm,-,N/A,,Scattered Clouds,0,2013-07-30 12:15:00
8:35 AM,54.0,54.0,100,30.24,10.0,Calm,Calm,-,N/A,,Clear,0,2013-07-30 12:35:00
8:55 AM,56.3,55.9,99,30.24,10.0,Calm,Calm,-,N/A,,Clear,0,2013-07-30 12:55:00
9:15 AM,60.3,54.9,82,30.24,10.0,Calm,Calm,-,N/A,,Clear,0,2013-07-30 13:15:00
9:35 AM,60.8,54.5,80,30.24,10.0,Calm,Calm,-,N/A,,Clear,0,2013-07-30 13:35:00
9:55 AM,63.3,55.0,74,30.23,10.0,Calm,Calm,-,N/A,,Clear,0,2013-07-30 13:55:00
10:15 AM,63.5,53.8,71,30.23,10.0,Calm,Calm,-,N/A,,Clear,0,2013-07-30 14:15:00
10:35 AM,66.7,54.5,65,30.23,10.0,Calm,Calm,-,N/A,,Clear,0,2013-07-30 14:35:00
10:54 AM,67.6,55.4,65,30.23,10.0,Calm,Calm,-,N/A,,Clear,0,2013-07-30 14:54:00
11:15 AM,67.1,54.9,65,30.23,10.0,Calm,Calm,-,N/A,,Clear,0,2013-07-30 15:15:00
11:35 AM,68.5,52.2,56,30.24,10.0,SSW,4.6,-,N/A,,Scattered Clouds,200,2013-07-30 15:35:00
11:55 AM,68.5,52.5,57,30.24,10.0,South,4.6,-,N/A,,Scattered Clouds,190,2013-07-30 15:55:00
12:15 PM,68.5,53.1,58,30.24,10.0,WSW,4.6,-,N/A,,Clear,240,2013-07-30 16:15:00
12:35 PM,68.5,52.3,56,30.24,10.0,West,3.5,-,N/A,,Clear,280,2013-07-30 16:35:00
12:54 PM,69.1,52.0,54,30.24,10.0,Calm,Calm,-,N/A,,Clear,0,2013-07-30 16:54:00
1:15 PM,69.6,51.8,53,30.23,10.0,SW,3.5,-,N/A,,Clear,230,2013-07-30 17:15:00
1:35 PM,71.1,53.4,54,30.22,10.0,Calm,Calm,-,N/A,,Clear,0,2013-07-30 17:35:00
1:55 PM,68.5,51.8,55,30.22,10.0,Calm,Calm,-,N/A,,Clear,0,2013-07-30 17:55:00
2:15 PM,69.3,52.5,55,30.21,10.0,WSW,4.6,-,N/A,,Clear,250,2013-07-30 18:15:00
2:35 PM,69.8,52.3,54,30.21,10.0,Calm,Calm,-,N/A,,Clear,0,2013-07-30 18:35:00
2:55 PM,70.3,51.8,52,30.20,10.0,Calm,Calm,-,N/A,,Clear,0,2013-07-30 18:55:00
3:15 PM,69.8,51.8,53,30.20,10.0,Calm,Calm,-,N/A,,Clear,0,2013-07-30 19:15:00
3:34 PM,72.5,53.8,52,30.19,10.0,Calm,Calm,-,N/A,,Scattered Clouds,0,2013-07-30 19:34:00
3:55 PM,73.6,54.3,51,30.19,10.0,Calm,Calm,-,N/A,,Mostly Cloudy,0,2013-07-30 19:55:00
4:15 PM,73.6,53.8,50,30.18,10.0,East,4.6,-,N/A,,Mostly Cloudy,90,2013-07-30 20:15:00
4:34 PM,73.6,51.6,46,30.18,10.0,Calm,Calm,-,N/A,,Overcast,0,2013-07-30 20:34:00
4:55 PM,73.6,50.4,44,30.17,10.0,SE,4.6,-,N/A,,Overcast,130,2013-07-30 20:55:00
5:15 PM,73.6,50.5,44,30.18,10.0,Calm,Calm,-,N/A,,Overcast,0,2013-07-30 21:15:00
5:34 PM,73.6,50.4,44,30.17,10.0,Calm,Calm,-,N/A,,Overcast,0,2013-07-30 21:34:00
5:55 PM,73.6,50.0,43,30.16,10.0,SSE,3.5,-,N/A,,Overcast,150,2013-07-30 21:55:00
6:15 PM,73.6,49.6,43,30.16,10.0,Calm,Calm,-,N/A,,Mostly Cloudy,0,2013-07-30 22:15:00
6:35 PM,73.6,50.9,45,30.16,10.0,Calm,Calm,-,N/A,,Mostly Cloudy,0,2013-07-30 22:35:00
6:55 PM,73.6,51.1,45,30.16,10.0,SSE,3.5,-,N/A,,Overcast,150,2013-07-30 22:55:00
7:15 PM,73.6,51.3,45,30.16,10.0,SSE,4.6,-,N/A,,Scattered Clouds,150,2013-07-30 23:15:00
7:35 PM,73.0,52.5,48,30.16,10.0,South,3.5,-,N/A,,Clear,170,2013-07-30 23:35:00
7:55 PM,73.6,54.0,50,30.15,10.0,Calm,Calm,-,N/A,,Clear,0,2013-07-30 23:55:00
8:15 PM,68.5,54.3,60,30.15,10.0,Calm,Calm,-,N/A,,Clear,0,2013-07-31 00:15:00
8:35 PM,68.5,56.5,65,30.15,10.0,Calm,Calm,-,N/A,,Clear,0,2013-07-31 00:35:00
8:55 PM,67.1,57.4,71,30.15,10.0,Calm,Calm,-,N/A,,Clear,0,2013-07-31 00:55:00
9:15 PM,63.5,56.5,78,30.15,10.0,Calm,Calm,-,N/A,,Clear,0,2013-07-31 01:15:00
9:35 PM,61.7,56.7,84,30.15,10.0,Calm,Calm,-,N/A,,Scattered Clouds,0,2013-07-31 01:35:00
9:55 PM,60.8,56.8,87,30.16,10.0,Calm,Calm,-,N/A,,Scattered Clouds,0,2013-07-31 01:55:00
10:14 PM,60.3,56.5,87,30.15,10.0,Calm,Calm,-,N/A,,Clear,0,2013-07-31 02:14:00
10:35 PM,58.5,55.0,88,30.16,10.0,Calm,Calm,-,N/A,,Clear,0,2013-07-31 02:35:00
10:55 PM,55.9,54.7,96,30.16,10.0,Calm,Calm,-,N/A,,Clear,0,2013-07-31 02:55:00
11:14 PM,55.9,54.1,94,30.15,10.0,Calm,Calm,-,N/A,,Clear,0,2013-07-31 03:14:00
11:35 PM,56.5,55.2,96,30.14,10.0,Calm,Calm,-,N/A,,Clear,0,2013-07-31 03:35:00
11:55 PM,55.9,55.6,99,30.14,10.0,Calm,Calm,-,N/A,,Clear,0,2013-07-31 03:55:00